createdAt,value
2023-05-17T00:01:09.226Z,100.00
2023-05-17T00:03:37.018Z,100.00
2023-05-17T00:06:05.097Z,100.00
2023-05-17T00:08:34.365Z,100.00
2023-05-17T00:11:02.229Z,100.00
2023-05-17T00:13:29.970Z,100.00
2023-05-17T00:15:57.795Z,100.00
2023-05-17T00:18:26.061Z,100.00
2023-05-17T00:20:54.014Z,100.00
2023-05-17T00:23:22.022Z,100.00
2023-05-17T00:25:52.943Z,100.00
2023-05-17T00:28:20.972Z,100.00
2023-05-17T00:30:48.740Z,100.00
2023-05-17T00:33:16.467Z,100.00
2023-05-17T00:35:44.251Z,100.00
2023-05-17T00:38:12.241Z,100.00
2023-05-17T00:40:40.000Z,100.00
2023-05-17T00:43:10.766Z,100.00
2023-05-17T00:45:38.884Z,100.00
2023-05-17T00:48:07.114Z,100.00
2023-05-17T00:50:35.799Z,100.00
2023-05-17T00:53:03.571Z,100.00
2023-05-17T00:55:31.926Z,100.00
2023-05-17T00:57:59.998Z,100.00
2023-05-17T01:00:29.746Z,100.00
2023-05-17T01:02:57.608Z,100.00
2023-05-17T01:05:28.723Z,100.00
2023-05-17T01:07:59.125Z,100.00
2023-05-17T01:10:32.391Z,100.00
2023-05-17T01:13:07.236Z,100.00
2023-05-17T01:15:42.436Z,100.00
2023-05-17T01:18:17.875Z,100.00
2023-05-17T01:20:47.326Z,100.00
2023-05-17T01:23:39.132Z,100.00
2023-05-17T01:26:12.235Z,100.00
2023-05-17T01:28:42.931Z,100.00
2023-05-17T01:31:12.589Z,100.00
2023-05-17T01:33:41.105Z,100.00
2023-05-17T01:36:09.901Z,100.00
2023-05-17T01:38:37.725Z,100.00
2023-05-17T01:41:10.727Z,100.00
2023-05-17T01:43:47.867Z,100.00
2023-05-17T01:46:26.014Z,100.00
2023-05-17T01:49:02.129Z,100.00
2023-05-17T01:51:33.410Z,100.00
2023-05-17T01:54:09.574Z,100.00
2023-05-17T01:56:42.273Z,100.00
2023-05-17T01:59:15.168Z,100.00
2023-05-17T02:01:43.746Z,100.00
2023-05-17T02:04:11.904Z,100.00
2023-05-17T02:06:39.741Z,100.00
2023-05-17T02:09:07.614Z,100.00
2023-05-17T02:11:36.987Z,100.00
2023-05-17T02:14:04.831Z,100.00
2023-05-17T02:16:34.035Z,100.00
2023-05-17T02:19:01.997Z,100.00
2023-05-17T02:21:29.782Z,100.00
2023-05-17T02:23:57.659Z,100.00
2023-05-17T02:26:25.551Z,100.00
2023-05-17T02:28:53.334Z,100.00
2023-05-17T02:31:21.289Z,100.00
2023-05-17T02:33:50.497Z,100.00
2023-05-17T02:36:18.367Z,100.00
2023-05-17T02:38:46.229Z,100.00
2023-05-17T02:41:14.056Z,100.00
2023-05-17T02:43:41.922Z,100.00
2023-05-17T02:46:09.667Z,100.00
2023-05-17T02:48:37.734Z,100.00
2023-05-17T02:51:07.161Z,100.00
2023-05-17T02:53:34.997Z,100.00
2023-05-17T02:56:02.793Z,100.00
2023-05-17T02:58:30.561Z,100.00
2023-05-17T03:00:58.796Z,100.00
2023-05-17T03:03:26.766Z,100.00
2023-05-17T03:05:54.666Z,100.00
2023-05-17T03:08:23.776Z,100.00
2023-05-17T03:10:51.498Z,100.00
2023-05-17T03:13:20.024Z,100.00
2023-05-17T03:15:47.822Z,100.00
2023-05-17T03:18:16.034Z,100.00
2023-05-17T03:20:44.103Z,100.00
2023-05-17T03:23:11.928Z,100.00
2023-05-17T03:25:41.125Z,100.00
2023-05-17T03:28:08.992Z,100.00
2023-05-17T03:30:37.379Z,100.00
2023-05-17T03:33:05.470Z,100.00
2023-05-17T03:35:33.255Z,100.00
2023-05-17T03:38:03.807Z,100.00
2023-05-17T03:40:32.065Z,100.00
2023-05-17T03:43:01.440Z,100.00
2023-05-17T03:45:29.431Z,100.00
2023-05-17T03:47:57.224Z,100.00
2023-05-17T03:50:25.353Z,100.00
2023-05-17T03:52:53.132Z,100.00
2023-05-17T03:55:21.012Z,100.00
2023-05-17T03:57:48.801Z,100.00
2023-05-17T04:00:21.798Z,100.00
2023-05-17T04:02:49.783Z,100.00
2023-05-17T04:05:17.781Z,100.00
2023-05-17T04:07:45.734Z,100.00
2023-05-17T04:10:13.529Z,100.00
2023-05-17T04:12:41.626Z,100.00
2023-05-17T04:15:10.265Z,100.00
2023-05-17T04:17:39.432Z,100.00
2023-05-17T04:20:08.237Z,100.00
2023-05-17T04:22:36.093Z,100.00
2023-05-17T04:25:03.889Z,100.00
2023-05-17T04:27:32.246Z,100.00
2023-05-17T04:30:00.025Z,100.00
2023-05-17T04:32:28.152Z,100.00
2023-05-17T04:34:57.421Z,100.00
2023-05-17T04:37:25.206Z,100.00
2023-05-17T04:39:53.813Z,100.00
2023-05-17T04:42:21.596Z,100.00
2023-05-17T04:44:49.377Z,100.00
2023-05-17T04:47:17.405Z,100.00
2023-05-17T04:49:45.179Z,100.00
2023-05-17T04:52:14.624Z,100.00
2023-05-17T04:54:42.456Z,100.00
2023-05-17T04:57:10.150Z,100.00
2023-05-17T04:59:38.235Z,100.00
2023-05-17T05:02:06.780Z,100.00
2023-05-17T05:04:34.626Z,100.00
2023-05-17T05:07:02.445Z,100.00
2023-05-17T05:09:31.854Z,100.00
2023-05-17T05:11:59.612Z,100.00
2023-05-17T05:14:27.325Z,100.00
2023-05-17T05:16:55.869Z,100.00
2023-05-17T05:19:23.733Z,100.00
2023-05-17T05:21:51.595Z,100.00
2023-05-17T05:24:21.493Z,100.00
2023-05-17T05:26:50.723Z,100.00
2023-05-17T05:29:19.216Z,100.00
2023-05-17T05:31:47.428Z,100.00
2023-05-17T05:34:15.406Z,100.00
2023-05-17T05:36:43.224Z,100.00
2023-05-17T05:39:11.002Z,100.00
2023-05-17T05:41:38.768Z,100.00
2023-05-17T05:44:07.937Z,100.00
2023-05-17T05:46:35.787Z,100.00
2023-05-17T05:49:03.789Z,100.00
2023-05-17T05:51:31.756Z,100.00
2023-05-17T05:54:00.060Z,100.00
2023-05-17T05:56:28.129Z,100.00
2023-05-17T05:58:56.470Z,100.00
2023-05-17T06:01:26.641Z,100.00
2023-05-17T06:03:54.534Z,100.00
2023-05-17T06:06:22.459Z,100.00
2023-05-17T06:08:50.264Z,100.00
2023-05-17T06:11:20.510Z,100.00
2023-05-17T06:13:48.277Z,100.00
2023-05-17T06:16:16.086Z,100.00
2023-05-17T06:18:46.165Z,100.00
2023-05-17T06:21:16.261Z,100.00
2023-05-17T06:23:44.548Z,100.00
2023-05-17T06:26:12.337Z,100.00
2023-05-17T06:28:40.161Z,99.78
2023-05-17T06:31:07.965Z,100.00
2023-05-17T06:33:36.190Z,100.00
2023-05-17T06:36:06.069Z,100.00
2023-05-17T06:38:33.880Z,98.14
2023-05-17T06:41:01.773Z,99.74
2023-05-17T06:43:29.518Z,98.35
2023-05-17T06:45:57.221Z,99.25
2023-05-17T06:48:25.458Z,99.13
2023-05-17T06:50:53.403Z,100.00
2023-05-17T06:53:22.856Z,100.00
2023-05-17T06:55:50.747Z,100.00
2023-05-17T06:58:18.477Z,100.00
2023-05-17T07:00:46.489Z,92.41
2023-05-17T07:03:14.466Z,98.34
2023-05-17T07:05:42.520Z,98.38
2023-05-17T07:08:10.381Z,97.48
2023-05-17T07:10:39.600Z,92.67
2023-05-17T07:13:07.440Z,96.93
2023-05-17T07:15:35.249Z,92.09
2023-05-17T07:18:03.324Z,93.85
2023-05-17T07:20:31.950Z,94.12
2023-05-17T07:22:59.752Z,92.72
2023-05-17T07:25:28.013Z,88.05
2023-05-17T07:27:57.451Z,89.10
2023-05-17T07:30:25.443Z,84.75
2023-05-17T07:32:53.317Z,89.22
2023-05-17T07:35:26.211Z,86.63
2023-05-17T07:37:54.040Z,85.33
2023-05-17T07:40:22.429Z,87.83
2023-05-17T07:42:50.170Z,80.86
2023-05-17T07:45:20.082Z,80.47
2023-05-17T07:47:48.463Z,76.82
2023-05-17T07:50:16.298Z,78.33
2023-05-17T07:52:44.148Z,79.15
2023-05-17T07:55:12.043Z,78.18
2023-05-17T07:57:40.190Z,80.17
2023-05-17T08:00:12.599Z,73.63
2023-05-17T08:02:42.191Z,77.24
2023-05-17T08:05:10.926Z,78.88
2023-05-17T08:07:38.658Z,78.00
2023-05-17T08:10:07.483Z,80.58
2023-05-17T08:12:35.472Z,81.28
2023-05-17T08:15:03.411Z,84.41
2023-05-17T08:17:31.213Z,73.25
2023-05-17T08:20:00.600Z,73.82
2023-05-17T08:22:29.000Z,74.77
2023-05-17T08:24:57.199Z,77.42
2023-05-17T08:27:26.129Z,78.12
2023-05-17T08:29:54.949Z,81.93
2023-05-17T08:32:23.572Z,77.88
2023-05-17T08:34:51.801Z,78.42
2023-05-17T08:37:21.005Z,77.35
2023-05-17T08:39:50.267Z,73.53
2023-05-17T08:42:22.730Z,74.14
2023-05-17T08:44:50.734Z,73.97
2023-05-17T08:47:26.099Z,71.38
2023-05-17T08:49:57.666Z,70.15
2023-05-17T08:52:30.243Z,70.55
2023-05-17T08:54:58.305Z,71.41
2023-05-17T08:57:29.358Z,75.43
2023-05-17T08:59:57.452Z,74.85
2023-05-17T09:02:25.655Z,75.96
2023-05-17T09:04:55.804Z,73.98
2023-05-17T09:07:24.208Z,72.13
2023-05-17T09:09:54.299Z,76.57
2023-05-17T09:12:25.413Z,79.42
2023-05-17T09:14:53.598Z,78.04
2023-05-17T09:17:22.824Z,73.61
2023-05-17T09:19:51.898Z,75.06
2023-05-17T09:22:20.669Z,75.18
2023-05-17T09:24:48.624Z,71.06
2023-05-17T09:27:19.765Z,69.07
2023-05-17T09:29:48.367Z,72.38
2023-05-17T09:32:18.039Z,72.32
2023-05-17T09:34:47.149Z,71.67
2023-05-17T09:37:16.709Z,72.29
2023-05-17T09:39:46.909Z,71.72
2023-05-17T09:42:16.813Z,71.11
2023-05-17T09:44:53.209Z,68.96
2023-05-17T09:47:25.490Z,68.17
2023-05-17T09:49:53.907Z,68.16
2023-05-17T09:52:22.750Z,62.84
2023-05-17T09:54:54.901Z,67.12
2023-05-17T09:57:22.748Z,68.19
2023-05-17T09:59:53.085Z,62.56
2023-05-17T10:02:29.208Z,61.09
2023-05-17T10:04:58.562Z,60.57
2023-05-17T10:07:28.200Z,62.68
2023-05-17T10:09:57.489Z,60.74
2023-05-17T10:12:29.594Z,60.64
2023-05-17T10:15:00.050Z,59.01
2023-05-17T10:17:30.436Z,61.79
2023-05-17T10:19:59.278Z,62.09
2023-05-17T10:22:29.073Z,62.18
2023-05-17T10:24:58.927Z,59.72
2023-05-17T10:27:27.955Z,59.88
2023-05-17T10:29:56.527Z,58.11
2023-05-17T10:32:28.386Z,60.11
2023-05-17T10:35:10.422Z,63.23
2023-05-17T10:37:41.196Z,59.70
2023-05-17T10:40:13.517Z,60.49
2023-05-17T10:42:43.711Z,59.80
2023-05-17T10:45:13.221Z,59.77
2023-05-17T10:47:46.158Z,60.57
2023-05-17T10:50:15.108Z,59.47
2023-05-17T10:52:48.353Z,59.51
2023-05-17T10:55:20.051Z,60.34
2023-05-17T10:58:10.453Z,60.88
2023-05-17T11:00:42.296Z,58.27
2023-05-17T11:03:16.779Z,57.28
2023-05-17T11:05:47.799Z,58.03
2023-05-17T11:08:17.794Z,61.12
2023-05-17T11:11:11.386Z,61.15
2023-05-17T11:13:47.411Z,59.52
2023-05-17T11:16:18.435Z,60.25
2023-05-17T11:18:52.381Z,59.24
2023-05-17T11:21:21.812Z,58.40
2023-05-17T11:23:56.189Z,55.90
2023-05-17T11:26:29.752Z,55.59
2023-05-17T11:29:03.435Z,55.26
2023-05-17T11:31:33.552Z,54.12
2023-05-17T11:34:04.202Z,53.91
2023-05-17T11:36:32.886Z,53.38
2023-05-17T11:39:12.005Z,54.89
2023-05-17T11:41:41.987Z,55.37
2023-05-17T11:44:10.143Z,55.39
2023-05-17T11:46:39.358Z,57.40
2023-05-17T11:49:10.219Z,56.57
2023-05-17T11:51:42.265Z,54.35
2023-05-17T11:54:11.971Z,56.41
2023-05-17T11:56:43.367Z,53.38
2023-05-17T11:59:12.597Z,56.65
2023-05-17T12:01:44.389Z,56.01
2023-05-17T12:04:14.592Z,55.84
2023-05-17T12:06:42.749Z,58.45
2023-05-17T12:09:13.425Z,57.47
2023-05-17T12:11:43.405Z,57.75
2023-05-17T12:14:11.308Z,54.21
2023-05-17T12:16:43.028Z,54.25
2023-05-17T12:19:20.275Z,53.09
2023-05-17T12:21:48.443Z,51.32
2023-05-17T12:24:16.577Z,51.87
2023-05-17T12:26:46.161Z,54.74
2023-05-17T12:29:14.892Z,54.25
2023-05-17T12:31:44.949Z,53.44
2023-05-17T12:34:14.207Z,54.45
2023-05-17T12:36:44.308Z,53.43
2023-05-17T12:39:13.950Z,53.38
2023-05-17T12:41:42.538Z,52.24
2023-05-17T12:44:15.438Z,51.06
2023-05-17T12:46:44.594Z,52.66
2023-05-17T12:49:13.015Z,54.50
2023-05-17T12:51:44.144Z,52.60
2023-05-17T12:54:12.808Z,53.53
2023-05-17T12:56:43.874Z,53.83
2023-05-17T12:59:13.974Z,53.28
2023-05-17T13:01:44.783Z,52.54
2023-05-17T13:04:13.518Z,53.03
2023-05-17T13:06:47.255Z,52.19
2023-05-17T13:09:15.512Z,53.93
2023-05-17T13:11:43.517Z,53.04
2023-05-17T13:14:13.017Z,53.98
2023-05-17T13:16:41.448Z,54.67
2023-05-17T13:19:15.953Z,54.49
2023-05-17T13:21:43.730Z,52.84
2023-05-17T13:24:12.821Z,52.64
2023-05-17T13:26:40.763Z,51.34
2023-05-17T13:29:08.670Z,47.87
2023-05-17T13:31:36.512Z,47.79
2023-05-17T13:34:04.542Z,49.17
2023-05-17T13:36:32.446Z,52.62
2023-05-17T13:39:02.022Z,53.41
2023-05-17T13:41:31.348Z,52.98
2023-05-17T13:43:59.243Z,51.47
2023-05-17T13:46:27.083Z,51.98
2023-05-17T13:48:55.039Z,50.15
2023-05-17T13:51:23.049Z,49.12
2023-05-17T13:53:50.865Z,48.52
2023-05-17T13:56:18.985Z,47.31
2023-05-17T13:58:48.325Z,44.98
2023-05-17T14:01:18.609Z,43.17
2023-05-17T14:03:46.606Z,44.35
2023-05-17T14:06:14.666Z,46.29
2023-05-17T14:08:42.419Z,46.49
2023-05-17T14:11:10.272Z,45.49
2023-05-17T14:13:38.310Z,45.91
2023-05-17T14:16:08.213Z,47.58
2023-05-17T14:18:36.256Z,46.23
2023-05-17T14:21:04.259Z,43.89
2023-05-17T14:23:32.018Z,44.46
2023-05-17T14:25:59.878Z,45.27
2023-05-17T14:28:27.813Z,47.94
2023-05-17T14:30:55.619Z,48.29
2023-05-17T14:33:25.653Z,50.03
2023-05-17T14:35:53.540Z,51.50
2023-05-17T14:38:22.414Z,50.71
2023-05-17T14:40:50.210Z,51.93
2023-05-17T14:43:19.362Z,50.82
2023-05-17T14:45:47.353Z,51.98
2023-05-17T14:48:15.288Z,50.13
2023-05-17T14:50:44.572Z,49.58
2023-05-17T14:53:12.551Z,48.81
2023-05-17T14:55:40.421Z,50.42
2023-05-17T14:58:08.219Z,51.93
2023-05-17T15:00:36.083Z,50.39
2023-05-17T15:03:04.166Z,51.46
2023-05-17T15:05:32.265Z,51.52
2023-05-17T15:08:01.643Z,52.51
2023-05-17T15:10:30.060Z,52.67
2023-05-17T15:12:57.904Z,52.62
2023-05-17T15:15:25.713Z,53.13
2023-05-17T15:17:54.174Z,53.46
2023-05-17T15:20:22.412Z,52.96
2023-05-17T15:22:50.204Z,53.41
2023-05-17T15:25:19.514Z,55.24
2023-05-17T15:27:49.309Z,54.31
2023-05-17T15:30:17.311Z,53.11
2023-05-17T15:32:45.218Z,53.23
2023-05-17T15:35:13.537Z,54.13
2023-05-17T15:37:41.329Z,55.75
2023-05-17T15:40:10.841Z,53.63
2023-05-17T15:42:40.217Z,52.83
2023-05-17T15:45:09.243Z,53.88
2023-05-17T15:47:42.967Z,53.93
2023-05-17T15:50:12.446Z,53.28
2023-05-17T15:52:40.270Z,53.63
2023-05-17T15:55:09.398Z,52.18
2023-05-17T15:57:37.219Z,52.44
2023-05-17T16:00:07.921Z,52.43
2023-05-17T16:02:35.739Z,52.86
2023-05-17T16:05:04.215Z,52.22
2023-05-17T16:07:32.549Z,52.00
2023-05-17T16:10:00.473Z,52.46
2023-05-17T16:12:28.326Z,52.06
2023-05-17T16:14:56.161Z,51.44
2023-05-17T16:17:25.491Z,52.19
2023-05-17T16:19:53.382Z,53.04
2023-05-17T16:22:21.616Z,52.92
2023-05-17T16:24:53.668Z,52.92
2023-05-17T16:27:21.265Z,53.50
2023-05-17T16:29:49.041Z,52.77
2023-05-17T16:32:16.942Z,52.28
2023-05-17T16:34:46.081Z,52.96
2023-05-17T16:37:14.012Z,53.87
2023-05-17T16:39:42.023Z,54.50
2023-05-17T16:42:09.898Z,53.66
2023-05-17T16:44:38.204Z,54.12
2023-05-17T16:47:06.565Z,53.05
2023-05-17T16:49:36.414Z,52.77
2023-05-17T16:52:06.271Z,53.77
2023-05-17T16:54:35.542Z,56.58
2023-05-17T16:57:06.543Z,55.77
2023-05-17T16:59:36.221Z,55.73
2023-05-17T17:02:04.537Z,56.55
2023-05-17T17:04:34.301Z,56.05
2023-05-17T17:07:02.554Z,56.40
2023-05-17T17:09:32.483Z,58.02
2023-05-17T17:12:04.574Z,57.11
2023-05-17T17:14:37.873Z,57.70
2023-05-17T17:17:06.090Z,56.19
2023-05-17T17:19:34.254Z,57.46
2023-05-17T17:22:05.468Z,56.12
2023-05-17T17:24:35.497Z,58.05
2023-05-17T17:27:03.312Z,58.17
2023-05-17T17:29:32.530Z,56.79
2023-05-17T17:32:00.875Z,56.92
2023-05-17T17:34:30.785Z,59.12
2023-05-17T17:36:58.984Z,57.82
2023-05-17T17:39:26.832Z,56.98
2023-05-17T17:41:56.001Z,59.24
2023-05-17T17:44:23.991Z,58.03
2023-05-17T17:46:51.959Z,61.27
2023-05-17T17:49:19.785Z,58.84
2023-05-17T17:51:47.931Z,58.84
2023-05-17T17:54:15.723Z,57.81
2023-05-17T17:56:43.652Z,59.37
2023-05-17T17:59:13.745Z,59.51
2023-05-17T18:01:41.670Z,58.76
2023-05-17T18:04:11.133Z,59.63
2023-05-17T18:06:40.094Z,59.25
2023-05-17T18:09:08.155Z,59.28
2023-05-17T18:11:36.312Z,59.69
2023-05-17T18:14:04.482Z,59.89
2023-05-17T18:16:33.700Z,60.18
2023-05-17T18:19:01.867Z,60.12
2023-05-17T18:21:30.281Z,61.52
2023-05-17T18:23:58.574Z,61.97
2023-05-17T18:26:26.425Z,61.01
2023-05-17T18:28:54.295Z,60.78
2023-05-17T18:31:22.096Z,61.51
2023-05-17T18:33:51.582Z,62.27
2023-05-17T18:36:19.589Z,62.94
2023-05-17T18:38:47.292Z,64.90
2023-05-17T18:41:17.744Z,65.55
2023-05-17T18:43:45.640Z,65.50
2023-05-17T18:46:13.457Z,64.44
2023-05-17T18:48:41.492Z,64.74
2023-05-17T18:51:12.862Z,65.34
2023-05-17T18:53:40.938Z,65.46
2023-05-17T18:56:08.801Z,64.79
2023-05-17T18:58:36.602Z,66.38
2023-05-17T19:01:04.512Z,67.93
2023-05-17T19:03:32.442Z,69.40
2023-05-17T19:06:00.309Z,70.48
2023-05-17T19:08:29.454Z,69.84
2023-05-17T19:10:57.339Z,70.21
2023-05-17T19:13:27.115Z,72.40
2023-05-17T19:15:54.980Z,70.36
2023-05-17T19:18:22.876Z,72.53
2023-05-17T19:20:50.941Z,74.50
2023-05-17T19:23:18.779Z,73.48
2023-05-17T19:25:48.468Z,74.24
2023-05-17T19:28:16.321Z,76.13
2023-05-17T19:30:44.121Z,76.13
2023-05-17T19:33:12.393Z,78.46
2023-05-17T19:35:40.943Z,78.15
2023-05-17T19:38:09.735Z,79.58
2023-05-17T19:40:38.496Z,80.35
2023-05-17T19:43:07.943Z,81.02
2023-05-17T19:45:35.757Z,85.17
2023-05-17T19:48:07.295Z,83.06
2023-05-17T19:50:35.598Z,82.62
2023-05-17T19:53:03.559Z,83.78
2023-05-17T19:55:31.523Z,84.96
2023-05-17T19:57:59.402Z,86.08
2023-05-17T20:00:28.837Z,87.10
2023-05-17T20:02:57.857Z,88.36
2023-05-17T20:05:27.338Z,90.52
2023-05-17T20:07:55.309Z,89.93
2023-05-17T20:10:23.228Z,90.39
2023-05-17T20:12:51.059Z,91.13
2023-05-17T20:15:18.881Z,96.85
2023-05-17T20:17:48.395Z,91.27
2023-05-17T20:20:16.280Z,90.39
2023-05-17T20:22:44.899Z,90.92
2023-05-17T20:25:12.801Z,92.40
2023-05-17T20:27:40.636Z,92.64
2023-05-17T20:30:09.966Z,92.07
2023-05-17T20:32:37.853Z,94.67
2023-05-17T20:35:08.333Z,94.34
2023-05-17T20:37:36.306Z,95.97
2023-05-17T20:40:08.961Z,94.76
2023-05-17T20:42:38.051Z,96.45
2023-05-17T20:45:07.242Z,96.12
2023-05-17T20:47:36.660Z,93.41
2023-05-17T20:50:06.168Z,94.10
2023-05-17T20:52:39.372Z,93.93
2023-05-17T20:55:09.990Z,94.12
2023-05-17T20:57:37.830Z,93.80
2023-05-17T21:00:08.209Z,94.39
2023-05-17T21:02:36.101Z,94.19
2023-05-17T21:05:04.932Z,96.86
2023-05-17T21:07:32.767Z,93.60
2023-05-17T21:10:01.957Z,92.47
2023-05-17T21:12:30.041Z,93.25
2023-05-17T21:15:14.435Z,97.08
2023-05-17T21:17:43.550Z,96.50
2023-05-17T21:20:12.730Z,95.85
2023-05-17T21:22:40.639Z,95.27
2023-05-17T21:25:11.020Z,96.28
2023-05-17T21:27:38.852Z,95.59
2023-05-17T21:30:07.821Z,94.55
2023-05-17T21:32:35.917Z,94.57
2023-05-17T21:35:03.879Z,95.23
2023-05-17T21:37:31.695Z,96.76
2023-05-17T21:39:59.595Z,96.56
2023-05-17T21:42:28.733Z,98.27
2023-05-17T21:44:56.535Z,96.92
2023-05-17T21:47:24.983Z,96.73
2023-05-17T21:49:53.187Z,98.93
2023-05-17T21:52:21.166Z,99.18
2023-05-17T21:54:49.651Z,100.00
2023-05-17T21:57:20.754Z,98.41
2023-05-17T21:59:51.387Z,98.31
2023-05-17T22:02:22.727Z,100.00
2023-05-17T22:04:50.550Z,99.83
2023-05-17T22:07:18.309Z,100.00
2023-05-17T22:09:46.749Z,100.00
2023-05-17T22:12:17.304Z,100.00
2023-05-17T22:14:45.436Z,100.00
2023-05-17T22:17:16.047Z,100.00
2023-05-17T22:19:45.330Z,100.00
2023-05-17T22:22:13.389Z,100.00
2023-05-17T22:24:41.176Z,100.00
2023-05-17T22:27:09.029Z,100.00
2023-05-17T22:29:38.393Z,100.00
2023-05-17T22:32:06.735Z,100.00
2023-05-17T22:34:38.078Z,100.00
2023-05-17T22:37:07.434Z,100.00
2023-05-17T22:39:35.464Z,100.00
2023-05-17T22:42:03.311Z,100.00
2023-05-17T22:44:31.983Z,100.00
2023-05-17T22:47:02.252Z,100.00
2023-05-17T22:49:30.448Z,100.00
2023-05-17T22:52:05.303Z,100.00
2023-05-17T22:54:33.766Z,100.00
2023-05-17T22:57:01.909Z,100.00
2023-05-17T22:59:30.204Z,100.00
2023-05-17T23:01:59.001Z,100.00
2023-05-17T23:04:27.375Z,100.00
2023-05-17T23:06:55.360Z,100.00
2023-05-17T23:09:24.727Z,100.00
2023-05-17T23:11:52.528Z,100.00
2023-05-17T23:14:22.002Z,100.00
2023-05-17T23:16:50.313Z,100.00
2023-05-17T23:19:18.357Z,100.00
2023-05-17T23:21:46.486Z,100.00
2023-05-17T23:24:14.916Z,100.00
2023-05-17T23:26:44.032Z,100.00
2023-05-17T23:29:12.617Z,100.00
2023-05-17T23:31:41.489Z,100.00
2023-05-17T23:34:09.510Z,100.00
2023-05-17T23:36:37.307Z,100.00
2023-05-17T23:39:05.337Z,100.00
2023-05-17T23:41:33.354Z,100.00
2023-05-17T23:44:02.570Z,100.00
2023-05-17T23:46:30.453Z,100.00
2023-05-17T23:48:58.236Z,100.00
2023-05-17T23:51:26.129Z,100.00
2023-05-17T23:53:53.925Z,100.00
2023-05-17T23:56:23.100Z,100.00
2023-05-17T23:58:50.995Z,100.00
